Time;durP1;ratioP1;P1;durP2;ratioP2;P2;SDS_P1;SDS_P2;PMS_P1;PMS_P2;Temp;Humidity;BMP_temperature;BMP_pressure;BME280_temperature;BME280_humidity;BME280_pressure;Samples;Min_cycle;Max_cycle;Signal;HPM_P1;HPM_P2
2022/03/26 00:01:50;;;;;;;;;;;19.60;90.70;;;;;;5097250;28;19935;-62
2022/03/26 00:04:17;;;;;;;;;;;19.60;90.70;;;;;;5089888;28;19924;-62
2022/03/26 00:06:45;;;;;;;;;;;19.60;90.70;;;;;;5102380;28;19930;-62
2022/03/26 00:09:12;;;;;;;;;;;19.60;90.70;;;;;;5088025;28;20289;-60
2022/03/26 00:11:39;;;;;;;;;;;19.60;90.60;;;;;;5096417;28;19931;-61
2022/03/26 00:14:06;;;;;;;;;;;19.60;90.60;;;;;;5099759;28;19943;-63
2022/03/26 00:16:34;;;;;;;;;;;19.60;90.40;;;;;;5093403;28;19924;-60
2022/03/26 00:19:01;;;;;;;;;;;19.60;90.40;;;;;;5093781;28;19924;-60
2022/03/26 00:21:29;;;;;;;;;;;19.50;90.60;;;;;;5095757;28;19930;-61
2022/03/26 00:23:56;;;;;;;;;;;19.50;90.70;;;;;;5090596;28;19924;-60
2022/03/26 00:26:23;;;;;;;;;;;19.60;90.70;;;;;;5104196;28;20395;-63
2022/03/26 00:28:51;;;;;;;;;;;19.50;90.70;;;;;;5095742;28;19950;-63
2022/03/26 00:31:18;;;;;;;;;;;19.50;90.70;;;;;;5090604;28;19924;-60
2022/03/26 00:33:45;;;;;;;;;;;19.50;90.70;;;;;;5087032;28;20258;-59
2022/03/26 00:36:12;;;;;;;;;;;19.50;90.70;;;;;;5104016;28;19919;-59
2022/03/26 00:38:39;;;;;;;;;;;19.50;90.60;;;;;;5102354;28;19942;-61
2022/03/26 00:41:07;;;;;;;;;;;19.50;90.60;;;;;;5106103;28;19920;-60
2022/03/26 00:43:34;;;;;;;;;;;19.50;90.70;;;;;;5100119;28;19924;-61
2022/03/26 00:46:01;;;;;;;;;;;19.50;90.70;;;;;;5094008;28;19923;-61
2022/03/26 00:48:28;;;;;;;;;;;19.50;90.50;;;;;;5104743;28;19927;-62
2022/03/26 00:50:56;;;;;;;;;;;19.50;90.60;;;;;;5096736;28;19928;-62
2022/03/26 00:53:29;;;;;;;;;;;19.50;90.50;;;;;;5102466;28;20545;-62
2022/03/26 00:55:56;;;;;;;;;;;19.50;90.60;;;;;;5099238;28;20017;-63
2022/03/26 00:58:23;;;;;;;;;;;19.50;90.60;;;;;;5093115;28;19924;-62
2022/03/26 01:00:50;;;;;;;;;;;19.50;90.70;;;;;;5092151;28;20308;-62
2022/03/26 01:03:18;;;;;;;;;;;19.40;90.70;;;;;;5095569;28;19924;-61
2022/03/26 01:05:45;;;;;;;;;;;19.40;90.70;;;;;;5103770;28;19919;-63
2022/03/26 01:08:13;;;;;;;;;;;19.40;90.80;;;;;;5092387;28;19920;-60
2022/03/26 01:10:41;;;;;;;;;;;19.40;90.80;;;;;;5090341;28;19924;-61
2022/03/26 01:13:09;;;;;;;;;;;19.40;90.90;;;;;;5089397;28;19924;-62
2022/03/26 01:15:36;;;;;;;;;;;19.40;90.90;;;;;;5100496;28;19920;-62
2022/03/26 01:18:03;;;;;;;;;;;19.40;90.80;;;;;;5092501;28;19924;-62
2022/03/26 01:20:30;;;;;;;;;;;19.40;90.80;;;;;;5094425;28;19942;-62
2022/03/26 01:22:57;;;;;;;;;;;19.40;90.70;;;;;;5101752;28;19933;-61
2022/03/26 01:25:25;;;;;;;;;;;19.40;90.70;;;;;;5095766;28;19923;-60
2022/03/26 01:27:52;;;;;;;;;;;19.40;90.80;;;;;;5089058;28;19931;-61
2022/03/26 01:30:19;;;;;;;;;;;19.40;90.70;;;;;;5089327;28;19935;-62
2022/03/26 01:32:47;;;;;;;;;;;19.40;90.70;;;;;;5098068;28;19923;-60
2022/03/26 01:35:14;;;;;;;;;;;19.40;90.70;;;;;;5099177;28;19920;-62
2022/03/26 01:37:41;;;;;;;;;;;19.40;90.80;;;;;;5095960;28;19923;-61
2022/03/26 01:40:08;;;;;;;;;;;19.40;90.70;;;;;;5088543;28;19928;-62
2022/03/26 01:42:35;;;;;;;;;;;19.40;90.60;;;;;;5093922;28;19920;-62
2022/03/26 01:45:03;;;;;;;;;;;19.40;90.50;;;;;;5104402;28;19924;-60
2022/03/26 01:47:30;;;;;;;;;;;19.30;90.50;;;;;;5097350;28;20023;-60
2022/03/26 01:49:57;;;;;;;;;;;19.30;90.50;;;;;;5101318;28;19920;-59
2022/03/26 01:52:24;;;;;;;;;;;19.30;90.50;;;;;;5114542;28;20158;-61
2022/03/26 01:54:51;;;;;;;;;;;19.30;90.30;;;;;;5096743;28;20377;-61
2022/03/26 01:57:18;;;;;;;;;;;19.40;90.50;;;;;;5108274;28;19954;-61
2022/03/26 01:59:45;;;;;;;;;;;19.40;90.40;;;;;;5096013;28;19923;-62
2022/03/26 02:02:13;;;;;;;;;;;19.30;90.50;;;;;;5090404;28;19943;-60
2022/03/26 02:04:40;;;;;;;;;;;19.30;90.70;;;;;;5090724;28;19924;-62
2022/03/26 02:07:07;;;;;;;;;;;19.30;90.80;;;;;;5087942;28;19923;-62
2022/03/26 02:09:35;;;;;;;;;;;19.30;90.90;;;;;;5098065;28;19931;-60
2022/03/26 02:12:20;;;;;;;;;;;19.30;90.90;;;;;;5097150;28;20300;-62
2022/03/26 02:14:48;;;;;;;;;;;19.30;91.10;;;;;;5094921;28;19939;-62
2022/03/26 02:17:17;;;;;;;;;;;19.30;91.10;;;;;;5094721;28;19927;-63
2022/03/26 02:20:04;;;;;;;;;;;19.30;91.10;;;;;;5089109;28;19920;-62
2022/03/26 02:22:32;;;;;;;;;;;19.30;91.00;;;;;;5087336;28;19947;-62
2022/03/26 02:24:59;;;;;;;;;;;19.30;90.90;;;;;;5089950;28;19926;-62
2022/03/26 02:27:27;;;;;;;;;;;19.30;90.90;;;;;;5096694;28;20273;-62
2022/03/26 02:29:54;;;;;;;;;;;19.30;90.90;;;;;;5089218;28;19920;-62
2022/03/26 02:32:22;;;;;;;;;;;19.20;90.80;;;;;;5091276;28;19923;-61
2022/03/26 02:34:50;;;;;;;;;;;19.30;90.80;;;;;;5087596;28;20300;-61
2022/03/26 02:37:32;;;;;;;;;;;19.30;90.90;;;;;;5100894;28;19919;-61
2022/03/26 02:40:00;;;;;;;;;;;19.30;90.90;;;;;;5095537;28;19920;-61
2022/03/26 02:42:28;;;;;;;;;;;19.20;90.60;;;;;;5089048;28;19927;-63
2022/03/26 02:44:55;;;;;;;;;;;19.20;90.60;;;;;;5092154;28;19923;-63
2022/03/26 02:47:22;;;;;;;;;;;19.20;90.50;;;;;;5097587;28;19924;-61
2022/03/26 02:49:50;;;;;;;;;;;19.20;90.80;;;;;;5091735;28;19928;-57
2022/03/26 02:52:17;;;;;;;;;;;19.20;90.80;;;;;;5090693;28;20411;-59
2022/03/26 02:54:44;;;;;;;;;;;19.20;90.80;;;;;;5092691;28;20550;-63
2022/03/26 02:57:11;;;;;;;;;;;19.20;90.80;;;;;;5098887;28;19920;-63
2022/03/26 02:59:38;;;;;;;;;;;19.20;90.90;;;;;;5070622;28;20114;-62
2022/03/26 03:02:09;;;;;;;;;;;19.20;90.80;;;;;;5089662;28;19920;-62
2022/03/26 03:04:36;;;;;;;;;;;19.20;90.90;;;;;;5091427;28;19927;-62
2022/03/26 03:07:04;;;;;;;;;;;19.20;90.80;;;;;;5103632;28;19924;-62
2022/03/26 03:09:31;;;;;;;;;;;19.20;91.00;;;;;;5096948;28;19931;-61
2022/03/26 03:11:58;;;;;;;;;;;19.20;91.00;;;;;;5098108;28;19924;-61
2022/03/26 03:14:25;;;;;;;;;;;19.20;91.00;;;;;;5092004;28;19934;-60
2022/03/26 03:16:53;;;;;;;;;;;19.10;91.00;;;;;;5098877;28;19931;-61
2022/03/26 03:19:20;;;;;;;;;;;19.20;91.10;;;;;;5092237;28;20396;-62
2022/03/26 03:21:47;;;;;;;;;;;19.10;90.80;;;;;;5087814;28;19920;-61
2022/03/26 03:24:14;;;;;;;;;;;19.10;90.70;;;;;;5088502;28;20420;-61
2022/03/26 03:26:41;;;;;;;;;;;19.10;91.30;;;;;;5101013;28;19931;-62
2022/03/26 03:29:08;;;;;;;;;;;19.10;91.30;;;;;;5102643;28;19924;-59
2022/03/26 03:31:37;;;;;;;;;;;19.10;91.30;;;;;;5096341;28;19927;-61
2022/03/26 03:34:04;;;;;;;;;;;19.10;91.30;;;;;;5097387;28;19930;-61
2022/03/26 03:36:31;;;;;;;;;;;19.10;91.20;;;;;;5087083;28;20340;-62
2022/03/26 03:38:58;;;;;;;;;;;19.10;91.20;;;;;;5088681;28;19959;-60
2022/03/26 03:41:25;;;;;;;;;;;19.10;91.20;;;;;;5095354;28;19923;-61
2022/03/26 03:43:52;;;;;;;;;;;19.10;91.10;;;;;;5098911;28;19923;-61
2022/03/26 03:46:19;;;;;;;;;;;19.10;90.90;;;;;;5096361;28;20592;-61
2022/03/26 03:48:47;;;;;;;;;;;19.10;90.90;;;;;;5105853;28;19923;-63
2022/03/26 03:51:14;;;;;;;;;;;19.10;90.80;;;;;;5090678;28;19947;-58
2022/03/26 03:53:41;;;;;;;;;;;19.10;90.70;;;;;;5104446;28;20315;-59
2022/03/26 03:56:08;;;;;;;;;;;19.10;90.70;;;;;;5091065;28;19931;-59
2022/03/26 03:58:35;;;;;;;;;;;19.10;90.80;;;;;;5093309;28;19920;-60
2022/03/26 04:01:03;;;;;;;;;;;19.10;90.80;;;;;;5094441;28;19930;-61
2022/03/26 04:03:31;;;;;;;;;;;19.10;90.60;;;;;;5091111;28;19928;-61
2022/03/26 04:05:59;;;;;;;;;;;19.10;90.60;;;;;;5090409;28;19931;-59
2022/03/26 04:08:26;;;;;;;;;;;19.10;90.60;;;;;;5076055;28;19927;-60
2022/03/26 04:10:53;;;;;;;;;;;19.00;90.60;;;;;;5096442;28;19946;-60
2022/03/26 04:13:20;;;;;;;;;;;19.00;90.50;;;;;;5095790;28;19927;-60
2022/03/26 04:15:47;;;;;;;;;;;19.00;90.50;;;;;;5110002;28;20564;-62
2022/03/26 04:18:15;;;;;;;;;;;19.00;90.60;;;;;;5098678;28;19924;-61
2022/03/26 04:20:42;;;;;;;;;;;19.00;90.50;;;;;;5089710;28;19919;-58
2022/03/26 04:23:09;;;;;;;;;;;19.10;90.50;;;;;;5097250;28;19919;-62
2022/03/26 04:25:38;;;;;;;;;;;19.00;90.70;;;;;;5101899;28;19924;-62
2022/03/26 04:28:05;;;;;;;;;;;19.00;90.80;;;;;;5090852;28;19920;-62
2022/03/26 04:30:32;;;;;;;;;;;19.00;90.80;;;;;;5099327;28;19919;-60
2022/03/26 04:33:00;;;;;;;;;;;19.00;90.80;;;;;;5098369;28;19920;-62
2022/03/26 04:35:27;;;;;;;;;;;19.00;90.60;;;;;;5106663;28;20390;-60
2022/03/26 04:37:56;;;;;;;;;;;18.90;90.70;;;;;;5090313;28;19924;-62
2022/03/26 04:40:23;;;;;;;;;;;19.00;90.50;;;;;;5079322;28;19950;-61
2022/03/26 04:42:51;;;;;;;;;;;19.00;90.30;;;;;;5089716;28;19924;-62
2022/03/26 04:45:18;;;;;;;;;;;19.00;90.40;;;;;;5093786;28;19927;-60
2022/03/26 04:47:45;;;;;;;;;;;19.00;90.20;;;;;;5098879;28;19934;-62
2022/03/26 04:50:12;;;;;;;;;;;19.00;90.30;;;;;;5096741;28;19935;-63
2022/03/26 04:52:39;;;;;;;;;;;19.00;90.10;;;;;;5095331;28;19927;-59
2022/03/26 04:55:11;;;;;;;;;;;19.00;90.30;;;;;;5098175;28;19943;-58
2022/03/26 04:57:39;;;;;;;;;;;19.00;90.30;;;;;;5089605;28;19931;-61
2022/03/26 05:00:06;;;;;;;;;;;19.10;90.10;;;;;;5103560;28;19920;-60
2022/03/26 05:02:36;;;;;;;;;;;19.10;90.00;;;;;;5098551;28;19924;-61
2022/03/26 05:05:03;;;;;;;;;;;19.20;89.90;;;;;;5091837;28;19931;-61
2022/03/26 05:07:45;;;;;;;;;;;19.20;89.60;;;;;;5099510;28;19923;-63
2022/03/26 05:10:20;;;;;;;;;;;19.20;89.30;;;;;;5104682;28;19930;-60
2022/03/26 05:12:49;;;;;;;;;;;19.30;89.30;;;;;;5096877;28;19920;-62
2022/03/26 05:15:17;;;;;;;;;;;19.40;89.40;;;;;;5096562;28;19924;-61
2022/03/26 05:17:44;;;;;;;;;;;19.40;89.20;;;;;;5102877;28;19950;-62
2022/03/26 05:20:12;;;;;;;;;;;19.40;89.00;;;;;;5090139;28;20347;-63
2022/03/26 05:22:40;;;;;;;;;;;19.50;88.90;;;;;;5095751;28;19943;-61
2022/03/26 05:25:08;;;;;;;;;;;19.50;88.70;;;;;;5070996;28;20344;-63
2022/03/26 05:27:35;;;;;;;;;;;19.50;88.60;;;;;;5104406;28;20292;-63
2022/03/26 05:30:03;;;;;;;;;;;19.60;88.70;;;;;;5108250;28;19924;-63
2022/03/26 05:32:31;;;;;;;;;;;19.60;88.80;;;;;;5094363;28;19924;-61
2022/03/26 05:34:58;;;;;;;;;;;19.60;88.90;;;;;;5105243;28;20662;-54
2022/03/26 05:37:25;;;;;;;;;;;19.60;89.00;;;;;;5096274;28;20215;-54
2022/03/26 05:39:52;;;;;;;;;;;19.60;89.10;;;;;;5104783;28;20388;-51
2022/03/26 05:42:19;;;;;;;;;;;19.60;88.80;;;;;;5104691;28;19924;-57
2022/03/26 05:44:46;;;;;;;;;;;19.70;88.90;;;;;;5086419;28;19924;-51
2022/03/26 05:47:13;;;;;;;;;;;19.70;89.60;;;;;;5097138;28;19930;-55
2022/03/26 05:49:41;;;;;;;;;;;19.70;89.90;;;;;;5090999;28;19928;-55
2022/03/26 05:52:08;;;;;;;;;;;19.70;90.00;;;;;;5102481;28;19924;-59
2022/03/26 05:54:35;;;;;;;;;;;19.70;90.30;;;;;;5098179;28;19920;-56
2022/03/26 05:57:03;;;;;;;;;;;19.70;90.70;;;;;;5090525;28;19924;-56
2022/03/26 05:59:31;;;;;;;;;;;19.80;91.20;;;;;;5101870;28;19919;-60
2022/03/26 06:01:58;;;;;;;;;;;19.70;91.60;;;;;;5102545;28;19924;-58
2022/03/26 06:04:27;;;;;;;;;;;19.80;92.10;;;;;;5097397;28;19924;-60
2022/03/26 06:06:54;;;;;;;;;;;19.80;92.40;;;;;;5094259;28;19924;-60
2022/03/26 06:09:21;;;;;;;;;;;19.80;92.70;;;;;;5098658;28;19935;-60
2022/03/26 06:11:48;;;;;;;;;;;19.80;92.90;;;;;;5104994;28;19924;-61
2022/03/26 06:14:17;;;;;;;;;;;19.80;92.90;;;;;;5097384;28;20387;-62
2022/03/26 06:16:45;;;;;;;;;;;19.80;93.10;;;;;;5092836;28;19920;-57
2022/03/26 06:19:13;;;;;;;;;;;19.90;93.20;;;;;;5103479;28;19959;-59
2022/03/26 06:21:40;;;;;;;;;;;19.80;93.30;;;;;;5098165;28;19934;-55
2022/03/26 06:24:08;;;;;;;;;;;19.80;93.40;;;;;;5085997;28;20416;-60
2022/03/26 06:26:37;;;;;;;;;;;19.80;93.50;;;;;;5099428;28;20299;-58
2022/03/26 06:29:05;;;;;;;;;;;19.80;93.50;;;;;;5099881;28;20321;-61
2022/03/26 06:31:32;;;;;;;;;;;19.80;93.60;;;;;;5099736;28;20391;-61
2022/03/26 06:34:00;;;;;;;;;;;19.80;93.60;;;;;;5107117;28;20419;-59
2022/03/26 06:36:27;;;;;;;;;;;19.80;93.70;;;;;;5095826;28;20324;-58
2022/03/26 06:38:54;;;;;;;;;;;19.80;93.70;;;;;;5098830;28;20404;-59
2022/03/26 06:41:22;;;;;;;;;;;19.80;93.90;;;;;;5097728;28;19927;-56
2022/03/26 06:43:49;;;;;;;;;;;19.80;93.70;;;;;;5089648;28;19942;-56
2022/03/26 06:46:16;;;;;;;;;;;19.80;93.70;;;;;;5098527;28;19945;-53
2022/03/26 06:48:43;;;;;;;;;;;19.80;93.70;;;;;;5088400;28;19923;-57
2022/03/26 06:51:10;;;;;;;;;;;19.80;93.70;;;;;;5094416;28;19928;-57
2022/03/26 06:53:38;;;;;;;;;;;19.80;93.80;;;;;;5103191;28;19931;-56
2022/03/26 06:56:06;;;;;;;;;;;19.80;93.70;;;;;;5106047;28;19924;-60
2022/03/26 06:58:34;;;;;;;;;;;20.30;93.00;;;;;;5093793;28;20089;-56
2022/03/26 07:01:03;;;;;;;;;;;21.10;91.90;;;;;;5090842;28;19927;-63
2022/03/26 07:03:30;;;;;;;;;;;21.70;91.00;;;;;;5091856;28;19920;-53
2022/03/26 07:05:58;;;;;;;;;;;21.90;90.60;;;;;;5095479;28;19920;-61
2022/03/26 07:08:27;;;;;;;;;;;21.90;90.70;;;;;;5097006;28;20334;-60
2022/03/26 07:10:54;;;;;;;;;;;21.90;90.70;;;;;;5105945;28;19920;-60
2022/03/26 07:13:22;;;;;;;;;;;21.40;91.10;;;;;;5092410;28;19924;-57
2022/03/26 07:15:49;;;;;;;;;;;21.00;91.70;;;;;;5091462;28;19924;-60
2022/03/26 07:18:16;;;;;;;;;;;20.60;92.10;;;;;;5074337;28;19924;-58
2022/03/26 07:20:43;;;;;;;;;;;20.40;92.40;;;;;;5098212;28;20352;-56
2022/03/26 07:23:10;;;;;;;;;;;20.30;92.70;;;;;;5087231;28;19924;-57
2022/03/26 07:25:37;;;;;;;;;;;20.20;92.80;;;;;;5102720;28;19930;-57
2022/03/26 07:28:05;;;;;;;;;;;20.20;92.90;;;;;;5098006;28;19931;-59
2022/03/26 07:30:32;;;;;;;;;;;20.10;92.90;;;;;;5098309;28;19923;-60
2022/03/26 07:33:00;;;;;;;;;;;20.10;92.90;;;;;;5087131;28;19928;-58
2022/03/26 07:35:30;;;;;;;;;;;20.10;92.90;;;;;;5103437;28;19930;-59
2022/03/26 07:37:58;;;;;;;;;;;20.10;92.90;;;;;;5096319;28;19920;-58
2022/03/26 07:40:25;;;;;;;;;;;20.10;93.00;;;;;;5103265;28;19931;-56
2022/03/26 07:42:52;;;;;;;;;;;20.60;92.50;;;;;;5085725;28;19934;-56
2022/03/26 07:45:19;;;;;;;;;;;20.60;92.30;;;;;;5100283;28;20349;-54
2022/03/26 07:47:46;;;;;;;;;;;20.50;92.50;;;;;;5102607;28;19931;-56
2022/03/26 07:50:13;;;;;;;;;;;20.40;92.70;;;;;;5093257;28;20148;-57
2022/03/26 07:52:41;;;;;;;;;;;20.20;92.80;;;;;;5096360;28;19935;-57
2022/03/26 07:55:08;;;;;;;;;;;20.20;92.80;;;;;;5104104;28;19931;-59
2022/03/26 07:57:36;;;;;;;;;;;20.10;93.20;;;;;;5086413;28;19920;-60
2022/03/26 08:00:05;;;;;;;;;;;20.10;93.40;;;;;;5096137;28;20259;-59
2022/03/26 08:02:39;;;;;;;;;;;20.10;93.70;;;;;;5102663;28;19924;-60
2022/03/26 08:05:06;;;;;;;;;;;20.10;93.80;;;;;;5095454;28;19919;-57
2022/03/26 08:07:33;;;;;;;;;;;20.10;94.00;;;;;;5103015;28;19923;-57
2022/03/26 08:10:00;;;;;;;;;;;20.10;94.00;;;;;;5105505;28;19927;-56
2022/03/26 08:12:27;;;;;;;;;;;20.10;94.20;;;;;;5105377;28;19919;-58
2022/03/26 08:14:54;;;;;;;;;;;20.10;94.10;;;;;;5104511;28;19920;-59
2022/03/26 08:17:22;;;;;;;;;;;20.10;94.20;;;;;;5102721;28;20502;-59
2022/03/26 08:19:50;;;;;;;;;;;20.10;94.30;;;;;;5096120;28;19927;-61
2022/03/26 08:22:17;;;;;;;;;;;20.00;94.00;;;;;;5088527;28;19923;-59
2022/03/26 08:24:44;;;;;;;;;;;20.00;93.20;;;;;;5092208;28;19919;-57
2022/03/26 08:27:11;;;;;;;;;;;20.00;92.60;;;;;;5102651;28;19919;-59
2022/03/26 08:29:38;;;;;;;;;;;20.00;92.40;;;;;;5096629;28;19931;-60
2022/03/26 08:32:07;;;;;;;;;;;19.90;92.50;;;;;;5094773;28;19928;-58
2022/03/26 08:34:34;;;;;;;;;;;19.90;92.90;;;;;;5099098;28;19931;-57
2022/03/26 08:37:01;;;;;;;;;;;20.00;93.30;;;;;;5100486;28;20156;-59
2022/03/26 08:39:28;;;;;;;;;;;20.00;93.50;;;;;;5091153;28;20455;-59
2022/03/26 08:41:55;;;;;;;;;;;20.00;93.90;;;;;;5090197;28;19931;-57
2022/03/26 08:44:23;;;;;;;;;;;20.00;94.20;;;;;;5109085;28;20379;-56
2022/03/26 08:46:50;;;;;;;;;;;20.00;94.30;;;;;;5103707;28;19923;-56
2022/03/26 08:49:17;;;;;;;;;;;20.10;93.90;;;;;;5099321;28;19954;-55
2022/03/26 08:51:44;;;;;;;;;;;20.10;93.80;;;;;;5093685;28;19920;-60
2022/03/26 08:54:11;;;;;;;;;;;20.00;93.70;;;;;;5105653;28;19931;-58
2022/03/26 08:56:39;;;;;;;;;;;20.00;93.70;;;;;;5110795;28;19923;-58
2022/03/26 08:59:06;;;;;;;;;;;20.00;93.70;;;;;;5109698;28;19927;-58
2022/03/26 09:01:33;;;;;;;;;;;20.00;93.60;;;;;;5098909;28;20278;-58
2022/03/26 09:04:01;;;;;;;;;;;20.00;93.50;;;;;;5096247;28;20384;-59
2022/03/26 09:06:29;;;;;;;;;;;20.00;93.50;;;;;;5094120;28;19932;-59
2022/03/26 09:08:56;;;;;;;;;;;20.00;93.50;;;;;;5110617;28;20442;-60
2022/03/26 09:11:23;;;;;;;;;;;20.00;93.70;;;;;;5109456;28;19939;-58
2022/03/26 09:13:51;;;;;;;;;;;19.90;93.80;;;;;;5099464;28;19928;-58
2022/03/26 09:16:18;;;;;;;;;;;20.00;93.90;;;;;;5097452;28;20388;-57
2022/03/26 09:18:46;;;;;;;;;;;20.00;93.80;;;;;;5082403;28;19938;-56
2022/03/26 09:21:13;;;;;;;;;;;20.00;93.60;;;;;;5100364;28;19935;-56
2022/03/26 09:23:40;;;;;;;;;;;19.90;93.50;;;;;;5089106;28;20399;-59
2022/03/26 09:26:07;;;;;;;;;;;19.90;93.50;;;;;;5089650;28;19993;-56
2022/03/26 09:28:34;;;;;;;;;;;19.90;93.60;;;;;;5096471;28;19945;-58
2022/03/26 09:31:01;;;;;;;;;;;20.00;93.60;;;;;;5089038;28;20296;-58
2022/03/26 09:33:28;;;;;;;;;;;20.00;93.60;;;;;;5084980;28;19971;-59
2022/03/26 09:35:56;;;;;;;;;;;19.90;93.60;;;;;;5091862;28;19935;-61
2022/03/26 09:38:26;;;;;;;;;;;19.90;93.70;;;;;;5091908;28;19924;-61
2022/03/26 09:40:53;;;;;;;;;;;19.90;93.70;;;;;;5092535;28;19947;-60
2022/03/26 09:43:20;;;;;;;;;;;19.90;93.70;;;;;;5088955;28;19920;-59
2022/03/26 09:45:47;;;;;;;;;;;20.00;93.70;;;;;;5089119;28;19943;-57
2022/03/26 09:48:14;;;;;;;;;;;19.90;93.70;;;;;;5088631;28;19924;-58
2022/03/26 09:50:43;;;;;;;;;;;19.90;93.70;;;;;;5087982;28;19924;-59
2022/03/26 09:53:11;;;;;;;;;;;19.90;93.70;;;;;;5077393;28;19936;-60
2022/03/26 09:55:39;;;;;;;;;;;20.00;93.80;;;;;;5087506;28;19930;-60
2022/03/26 09:58:07;;;;;;;;;;;20.00;93.70;;;;;;5070432;28;19943;-58
2022/03/26 10:00:34;;;;;;;;;;;20.00;93.80;;;;;;5088186;28;19947;-55
2022/03/26 10:03:01;;;;;;;;;;;20.00;93.80;;;;;;5085830;28;19924;-60
2022/03/26 10:05:33;;;;;;;;;;;20.00;93.80;;;;;;5100592;28;20395;-60
2022/03/26 10:08:23;;;;;;;;;;;20.00;93.70;;;;;;5094857;28;19920;-59
2022/03/26 10:10:50;;;;;;;;;;;20.00;93.70;;;;;;5078947;28;19924;-60
2022/03/26 10:13:36;;;;;;;;;;;20.10;93.70;;;;;;5089826;28;20022;-58
2022/03/26 10:16:06;;;;;;;;;;;20.10;93.70;;;;;;5094745;28;19935;-58
2022/03/26 10:18:34;;;;;;;;;;;20.10;93.70;;;;;;5087886;28;20380;-56
2022/03/26 10:21:01;;;;;;;;;;;20.10;93.70;;;;;;5087100;28;19924;-59
2022/03/26 10:23:29;;;;;;;;;;;20.10;93.70;;;;;;5096352;28;20411;-57
2022/03/26 10:26:05;;;;;;;;;;;20.10;93.70;;;;;;5088556;28;20300;-58
2022/03/26 10:28:33;;;;;;;;;;;20.10;93.70;;;;;;5094993;28;19919;-57
2022/03/26 10:34:04;;;;;;;;;;;20.10;93.70;;;;;;5085981;28;19928;-65
2022/03/26 10:36:33;;;;;;;;;;;20.00;93.70;;;;;;5077466;28;19924;-59
2022/03/26 10:39:00;;;;;;;;;;;20.10;93.80;;;;;;5074915;28;20361;-58
2022/03/26 10:41:30;;;;;;;;;;;20.10;93.80;;;;;;5088353;28;19927;-59
2022/03/26 10:44:18;;;;;;;;;;;20.10;93.80;;;;;;5088815;28;19954;-59
2022/03/26 10:46:46;;;;;;;;;;;20.10;93.80;;;;;;5085325;28;19924;-58
2022/03/26 10:49:23;;;;;;;;;;;20.10;93.70;;;;;;5087879;28;20486;-60
2022/03/26 10:51:50;;;;;;;;;;;20.10;93.70;;;;;;5087406;28;19927;-57
2022/03/26 10:54:17;;;;;;;;;;;20.10;93.70;;;;;;5091585;28;19920;-60
2022/03/26 10:56:44;;;;;;;;;;;20.10;93.70;;;;;;5095310;28;19927;-58
2022/03/26 10:59:12;;;;;;;;;;;20.10;93.70;;;;;;5087273;28;20250;-56
2022/03/26 11:01:39;;;;;;;;;;;20.10;93.70;;;;;;5087141;28;19924;-54
2022/03/26 11:04:06;;;;;;;;;;;20.10;93.80;;;;;;5091782;28;20029;-56
2022/03/26 11:06:36;;;;;;;;;;;20.10;93.70;;;;;;5091503;28;19927;-59
2022/03/26 11:09:04;;;;;;;;;;;20.10;93.70;;;;;;5091507;28;19927;-58
2022/03/26 11:11:31;;;;;;;;;;;20.10;93.70;;;;;;5086852;28;20218;-58
2022/03/26 11:14:01;;;;;;;;;;;20.10;93.70;;;;;;5070912;28;20423;-56
2022/03/26 11:16:34;;;;;;;;;;;20.10;93.70;;;;;;5089318;28;20550;-61
2022/03/26 11:19:05;;;;;;;;;;;20.10;93.70;;;;;;5094305;28;19962;-58
2022/03/26 11:21:55;;;;;;;;;;;20.10;93.70;;;;;;5088405;28;19920;-60
2022/03/26 11:24:28;;;;;;;;;;;20.10;93.70;;;;;;5102491;28;19946;-56
2022/03/26 11:26:59;;;;;;;;;;;20.10;93.70;;;;;;5087483;28;19924;-59
2022/03/26 11:29:26;;;;;;;;;;;20.10;93.70;;;;;;5093847;28;19931;-55
2022/03/26 11:32:02;;;;;;;;;;;20.10;93.70;;;;;;5095443;28;19943;-61
2022/03/26 11:34:35;;;;;;;;;;;20.20;93.70;;;;;;5075198;28;19924;-59
2022/03/26 11:37:13;;;;;;;;;;;20.10;93.70;;;;;;5086765;28;19927;-60
2022/03/26 11:39:44;;;;;;;;;;;20.10;93.70;;;;;;5087477;28;19924;-58
2022/03/26 11:42:12;;;;;;;;;;;20.10;93.70;;;;;;5087381;28;19920;-58
2022/03/26 11:44:45;;;;;;;;;;;20.10;93.70;;;;;;5092151;28;20335;-59
2022/03/26 11:50:45;;;;;;;;;;;20.10;93.70;;;;;;5087223;28;19931;-63
2022/03/26 11:53:32;;;;;;;;;;;20.10;93.70;;;;;;5091590;28;19927;-55
2022/03/26 11:56:01;;;;;;;;;;;20.10;93.70;;;;;;5080663;28;19979;-58
2022/03/26 11:58:29;;;;;;;;;;;20.10;93.70;;;;;;5101510;28;19924;-56
2022/03/26 12:00:59;;;;;;;;;;;20.00;93.70;;;;;;5102633;28;19930;-58
2022/03/26 12:03:27;;;;;;;;;;;20.00;93.60;;;;;;5102834;28;19927;-60
2022/03/26 12:08:48;;;;;;;;;;;20.00;93.70;;;;;;5104990;28;19943;-60
2022/03/26 12:11:15;;;;;;;;;;;20.10;93.80;;;;;;5096257;28;19919;-58
2022/03/26 12:13:57;;;;;;;;;;;20.10;93.80;;;;;;5096877;28;19924;-59
2022/03/26 12:16:46;;;;;;;;;;;20.10;93.80;;;;;;5092878;28;19931;-60
2022/03/26 12:19:34;;;;;;;;;;;20.10;93.80;;;;;;5090571;28;20196;-59
2022/03/26 12:22:20;;;;;;;;;;;20.00;93.80;;;;;;5091730;28;19927;-57
2022/03/26 12:24:48;;;;;;;;;;;20.00;93.80;;;;;;5091193;28;19923;-58
2022/03/26 12:27:15;;;;;;;;;;;20.10;93.90;;;;;;5096096;28;19935;-59
2022/03/26 12:29:43;;;;;;;;;;;20.00;93.90;;;;;;5101154;28;20027;-56
2022/03/26 12:32:10;;;;;;;;;;;20.00;93.90;;;;;;5100528;28;20414;-58
2022/03/26 12:34:56;;;;;;;;;;;20.00;94.20;;;;;;5103782;28;20304;-59
2022/03/26 12:37:23;;;;;;;;;;;20.00;94.20;;;;;;5093214;28;19928;-59
2022/03/26 12:39:51;;;;;;;;;;;20.00;94.20;;;;;;5090162;28;19938;-58
2022/03/26 12:42:19;;;;;;;;;;;20.00;94.30;;;;;;5097436;28;19994;-58
2022/03/26 12:44:46;;;;;;;;;;;19.90;93.40;;;;;;5097318;28;19923;-56
2022/03/26 12:47:17;;;;;;;;;;;19.90;92.60;;;;;;5098162;28;19934;-57
2022/03/26 12:49:44;;;;;;;;;;;19.80;89.60;;;;;;5096516;28;19924;-57
2022/03/26 12:52:15;;;;;;;;;;;19.60;87.70;;;;;;5097612;28;19927;-56
2022/03/26 12:54:42;;;;;;;;;;;19.50;82.10;;;;;;5088758;28;19924;-59
2022/03/26 12:57:09;;;;;;;;;;;19.50;83.90;;;;;;5103633;28;19928;-57
2022/03/26 12:59:36;;;;;;;;;;;19.40;81.50;;;;;;5095570;28;19920;-57
2022/03/26 13:02:07;;;;;;;;;;;19.40;83.80;;;;;;5097638;28;19923;-57
2022/03/26 13:04:38;;;;;;;;;;;19.40;81.10;;;;;;5100611;28;20360;-56
2022/03/26 13:07:05;;;;;;;;;;;19.50;83.00;;;;;;5093763;28;20498;-58
2022/03/26 13:09:33;;;;;;;;;;;19.50;84.20;;;;;;5103047;28;19935;-59
2022/03/26 13:12:00;;;;;;;;;;;19.70;85.20;;;;;;5104745;28;19920;-57
2022/03/26 13:14:27;;;;;;;;;;;19.70;86.00;;;;;;5080043;28;20380;-54
2022/03/26 13:16:55;;;;;;;;;;;19.70;86.60;;;;;;5090918;28;19924;-61
2022/03/26 13:19:22;;;;;;;;;;;19.80;87.00;;;;;;5102863;28;19924;-56
2022/03/26 13:21:50;;;;;;;;;;;19.90;88.20;;;;;;5098422;28;20356;-55
2022/03/26 13:24:20;;;;;;;;;;;19.90;89.60;;;;;;5100584;28;19920;-55
2022/03/26 13:26:55;;;;;;;;;;;19.90;90.00;;;;;;5098096;28;19938;-58
2022/03/26 13:29:24;;;;;;;;;;;20.00;90.40;;;;;;5099431;28;19924;-57
2022/03/26 13:31:55;;;;;;;;;;;20.00;90.80;;;;;;5097108;28;19919;-56
2022/03/26 13:34:23;;;;;;;;;;;20.00;90.70;;;;;;5100723;28;20579;-57
2022/03/26 13:36:51;;;;;;;;;;;20.10;90.80;;;;;;5102601;28;20308;-58
2022/03/26 13:39:18;;;;;;;;;;;20.10;91.10;;;;;;5104073;28;19997;-58
2022/03/26 13:41:46;;;;;;;;;;;20.20;91.30;;;;;;5101526;28;19972;-56
2022/03/26 13:44:13;;;;;;;;;;;20.20;91.40;;;;;;5079802;28;19930;-55
2022/03/26 13:46:41;;;;;;;;;;;20.20;91.90;;;;;;5104142;28;20311;-58
2022/03/26 13:49:08;;;;;;;;;;;20.20;92.50;;;;;;5102760;28;19924;-56
2022/03/26 13:51:37;;;;;;;;;;;20.30;92.80;;;;;;5104412;28;19923;-59
2022/03/26 13:54:05;;;;;;;;;;;20.40;92.90;;;;;;5108292;28;19931;-59
2022/03/26 13:56:35;;;;;;;;;;;20.40;93.00;;;;;;5108982;28;19946;-58
2022/03/26 13:59:04;;;;;;;;;;;20.40;93.10;;;;;;5101200;28;19919;-57
2022/03/26 14:01:34;;;;;;;;;;;20.40;93.20;;;;;;5095970;28;20385;-58
2022/03/26 14:04:02;;;;;;;;;;;20.50;93.40;;;;;;5091166;28;19923;-57
2022/03/26 14:06:29;;;;;;;;;;;20.50;93.50;;;;;;5092411;28;19923;-58
2022/03/26 14:08:59;;;;;;;;;;;20.50;93.40;;;;;;5091285;28;19939;-58
2022/03/26 14:11:26;;;;;;;;;;;20.60;93.30;;;;;;5105535;28;19927;-58
2022/03/26 14:13:53;;;;;;;;;;;20.60;93.30;;;;;;5096302;28;19920;-55
2022/03/26 14:16:20;;;;;;;;;;;20.70;93.30;;;;;;5095076;28;20042;-58
2022/03/26 14:18:47;;;;;;;;;;;20.70;93.40;;;;;;5087911;28;19920;-58
2022/03/26 14:21:14;;;;;;;;;;;20.70;93.40;;;;;;5088808;28;19939;-58
2022/03/26 14:23:42;;;;;;;;;;;20.80;93.60;;;;;;5098137;28;19927;-58
2022/03/26 14:26:09;;;;;;;;;;;20.80;93.60;;;;;;5097309;28;19938;-59
2022/03/26 14:28:36;;;;;;;;;;;20.90;93.80;;;;;;5095512;28;19924;-57
2022/03/26 14:31:04;;;;;;;;;;;20.90;93.80;;;;;;5099903;28;19930;-58
2022/03/26 14:33:31;;;;;;;;;;;20.90;93.90;;;;;;5090634;28;19924;-57